Time;durP1;ratioP1;P1;durP2;ratioP2;P2;SDS_P1;SDS_P2;PMS_P1;PMS_P2;Temp;Humidity;BMP_temperature;BMP_pressure;BME280_temperature;BME280_humidity;BME280_pressure;Samples;Min_cycle;Max_cycle;Signal;HPM_P1;HPM_P2
2021/12/18 00:01:49;;;;;;;10.45;3.20;;;6.10;99.50;;;;;;5021033;28;20049;-73
2021/12/18 00:04:14;;;;;;;8.88;2.85;;;6.10;99.50;;;;;;5009894;28;20030;-73
2021/12/18 00:06:40;;;;;;;11.70;2.88;;;6.10;99.50;;;;;;5022392;28;20024;-73
2021/12/18 00:09:08;;;;;;;11.75;3.50;;;6.10;99.50;;;;;;5009407;28;20337;-73
2021/12/18 00:11:33;;;;;;;8.00;2.78;;;6.20;99.50;;;;;;5023831;28;20455;-73
2021/12/18 00:13:59;;;;;;;11.70;3.25;;;6.20;99.50;;;;;;5022036;28;20025;-73
2021/12/18 00:16:25;;;;;;;11.00;2.97;;;6.10;99.50;;;;;;5024298;28;20086;-72
2021/12/18 00:18:52;;;;;;;13.05;3.65;;;6.20;99.50;;;;;;5026311;28;20052;-73
2021/12/18 00:21:19;;;;;;;11.40;3.35;;;6.20;99.50;;;;;;5022057;28;20049;-73
2021/12/18 00:23:45;;;;;;;10.57;3.20;;;6.20;99.50;;;;;;5029350;28;20087;-73
2021/12/18 00:26:11;;;;;;;13.73;3.20;;;6.20;99.50;;;;;;5017794;28;20030;-73
2021/12/18 00:28:36;;;;;;;9.07;3.00;;;6.20;99.50;;;;;;5009359;28;20026;-73
2021/12/18 00:31:02;;;;;;;10.38;3.15;;;6.20;99.50;;;;;;5022065;28;20071;-73
2021/12/18 00:33:27;;;;;;;12.27;3.22;;;6.20;99.50;;;;;;5032280;28;20670;-73
2021/12/18 00:35:53;;;;;;;10.57;3.20;;;6.20;99.50;;;;;;5023192;28;20108;-73
2021/12/18 00:38:18;;;;;;;12.85;3.22;;;6.20;99.50;;;;;;5023438;28;20055;-73
2021/12/18 00:41:00;;;;;;;8.50;3.22;;;6.20;99.50;;;;;;5029174;28;20510;-73
2021/12/18 00:43:30;;;;;;;13.63;3.38;;;6.20;99.60;;;;;;5024446;28;20120;-73
2021/12/18 00:45:55;;;;;;;14.50;3.10;;;6.20;99.60;;;;;;5015266;28;20014;-73
2021/12/18 00:48:21;;;;;;;11.23;2.72;;;6.20;99.60;;;;;;5006295;28;20095;-73
2021/12/18 00:50:48;;;;;;;10.15;2.80;;;6.20;99.60;;;;;;5019730;28;20588;-73
2021/12/18 00:53:13;;;;;;;9.60;2.83;;;6.20;99.60;;;;;;5023806;28;20386;-73
2021/12/18 00:55:39;;;;;;;8.43;2.58;;;6.20;99.60;;;;;;5025183;28;20081;-73
2021/12/18 00:58:05;;;;;;;11.27;2.70;;;6.20;99.60;;;;;;5012470;28;20030;-73
2021/12/18 01:00:33;;;;;;;23.58;3.00;;;6.20;99.60;;;;;;5021848;28;20902;-73
2021/12/18 01:03:01;;;;;;;11.30;2.30;;;6.20;99.60;;;;;;5018929;28;20041;-73
2021/12/18 01:05:29;;;;;;;12.50;3.03;;;6.20;99.60;;;;;;5029686;28;20462;-73
2021/12/18 01:07:57;;;;;;;9.70;2.50;;;6.20;99.60;;;;;;5025455;28;20034;-73
2021/12/18 01:11:08;;;;;;;9.02;2.47;;;6.20;99.60;;;;;;5016344;28;20076;-72
2021/12/18 01:13:32;;;;;;;6.65;2.35;;;6.20;99.60;;;;;;5011047;28;20156;-73
2021/12/18 01:16:06;;;;;;;9.07;3.10;;;6.20;99.60;;;;;;5026793;28;20021;-73
2021/12/18 01:24:00;;;;;;;11.38;3.03;;;6.30;99.70;;;;;;5023339;28;20044;-73
2021/12/18 01:26:25;;;;;;;9.80;2.85;;;6.20;99.70;;;;;;5020867;28;20101;-73
2021/12/18 01:28:51;;;;;;;11.82;3.00;;;6.20;99.70;;;;;;5021272;28;20025;-72
2021/12/18 01:31:16;;;;;;;12.55;3.25;;;6.20;99.70;;;;;;5021704;28;20029;-73
2021/12/18 01:33:42;;;;;;;12.57;2.90;;;6.30;99.70;;;;;;5017421;28;20037;-73
2021/12/18 01:36:07;;;;;;;10.32;2.70;;;6.30;99.70;;;;;;5024638;28;20032;-73
2021/12/18 01:38:33;;;;;;;11.13;2.70;;;6.30;99.70;;;;;;5015198;28;20160;-73
2021/12/18 01:41:01;;;;;;;13.35;2.80;;;6.30;99.70;;;;;;5024404;28;20036;-72
2021/12/18 01:51:21;;;;;;;16.52;2.63;;;6.30;99.80;;;;;;5029948;28;20591;-73
2021/12/18 01:53:49;;;;;;;13.20;2.33;;;6.30;99.80;;;;;;5021399;28;20045;-73
2021/12/18 01:56:16;;;;;;;8.98;2.42;;;6.30;99.80;;;;;;5022117;28;20510;-72
2021/12/18 01:58:44;;;;;;;13.48;2.50;;;6.30;99.80;;;;;;5027853;28;20127;-73
2021/12/18 02:01:10;;;;;;;12.73;2.50;;;6.30;99.80;;;;;;5013444;28;20025;-72
2021/12/18 02:03:36;;;;;;;7.45;2.10;;;6.30;99.80;;;;;;5023698;28;20045;-73
2021/12/18 02:06:02;;;;;;;7.68;2.47;;;6.30;99.80;;;;;;5018280;28;20708;-73
2021/12/18 02:08:29;;;;;;;9.70;2.25;;;6.40;99.80;;;;;;5007307;28;20089;-73
2021/12/18 02:21:42;;;;;;;15.43;3.05;;;6.40;99.90;;;;;;5026018;28;20056;-73
2021/12/18 02:24:07;;;;;;;9.98;2.80;;;6.40;99.80;;;;;;5033574;28;20030;-73
2021/12/18 02:26:33;;;;;;;10.85;3.40;;;6.40;99.80;;;;;;5021541;28;20037;-72
2021/12/18 02:29:02;;;;;;;14.30;2.70;;;6.40;99.80;;;;;;5013072;28;20030;-72
2021/12/18 02:31:29;;;;;;;13.57;2.90;;;6.40;99.90;;;;;;5031972;28;20092;-73
2021/12/18 02:33:55;;;;;;;11.32;2.92;;;6.40;99.90;;;;;;5028324;28;20135;-72
2021/12/18 02:36:25;;;;;;;11.35;3.00;;;6.40;99.90;;;;;;5022380;28;20488;-73
2021/12/18 02:41:41;;;;;;;8.20;2.55;;;6.40;99.90;;;;;;5023094;28;20292;-73
2021/12/18 02:44:10;;;;;;;9.15;2.38;;;6.40;99.90;;;;;;5037078;28;20047;-72
2021/12/18 02:46:37;;;;;;;10.88;2.53;;;6.40;99.90;;;;;;5016559;28;20529;-72
2021/12/18 02:49:12;;;;;;;11.98;2.20;;;6.40;99.90;;;;;;5023788;28;20092;-73
2021/12/18 02:51:38;;;;;;;7.75;2.30;;;6.40;99.90;;;;;;5021184;28;20056;-71
2021/12/18 02:54:04;;;;;;;7.30;2.00;;;6.40;99.90;;;;;;5029192;28;20054;-72
2021/12/18 02:56:29;;;;;;;9.60;1.88;;;6.40;99.90;;;;;;5022000;28;20352;-72
2021/12/18 02:59:04;;;;;;;10.18;2.10;;;6.40;99.90;;;;;;5018952;28;20030;-71
2021/12/18 03:01:30;;;;;;;11.38;2.13;;;6.40;99.90;;;;;;5020709;28;20037;-71
2021/12/18 03:03:58;;;;;;;9.77;2.60;;;6.40;99.90;;;;;;5018989;28;20029;-71
2021/12/18 03:06:33;;;;;;;14.07;2.53;;;6.40;99.90;;;;;;5020720;28;20033;-72
2021/12/18 03:25:02;;;;;;;9.38;2.33;;;6.50;99.90;;;;;;5020161;28;20499;-71
2021/12/18 03:27:28;;;;;;;11.60;3.08;;;6.40;99.90;;;;;;5015785;28;20025;-71
2021/12/18 03:29:55;;;;;;;18.13;3.33;;;6.50;99.90;;;;;;5021802;28;20607;-71
2021/12/18 03:32:21;;;;;;;13.45;3.20;;;6.50;99.90;;;;;;5014587;28;20155;-71
2021/12/18 03:34:47;;;;;;;14.85;2.63;;;6.50;99.90;;;;;;5021522;28;20434;-71
2021/12/18 03:37:13;;;;;;;9.60;2.38;;;6.50;99.90;;;;;;5020226;28;20030;-72
2021/12/18 03:39:39;;;;;;;19.23;3.63;;;6.50;99.90;;;;;;5023077;28;20041;-70
2021/12/18 03:42:06;;;;;;;21.30;3.53;;;6.40;99.90;;;;;;5027029;28;20029;-72
2021/12/18 03:44:32;;;;;;;22.33;3.20;;;6.50;99.90;;;;;;5031111;28;20026;-72
2021/12/18 03:46:59;;;;;;;37.50;4.22;;;6.50;99.90;;;;;;5021928;28;20032;-72
2021/12/18 03:49:24;;;;;;;22.60;3.88;;;6.50;99.90;;;;;;5027899;28;20492;-72
2021/12/18 03:51:50;;;;;;;30.10;3.63;;;6.50;99.90;;;;;;5018343;28;20039;-72
2021/12/18 03:54:16;;;;;;;42.92;3.90;;;6.50;99.90;;;;;;5019722;28;20041;-72
2021/12/18 03:56:41;;;;;;;27.30;3.47;;;6.50;99.90;;;;;;5037897;28;20043;-72
2021/12/18 03:59:07;;;;;;;26.67;3.97;;;6.50;99.90;;;;;;5020711;28;20025;-72
2021/12/18 04:01:32;;;;;;;30.75;3.95;;;6.50;99.90;;;;;;5019422;28;20057;-72
2021/12/18 04:03:58;;;;;;;28.80;4.60;;;6.50;99.90;;;;;;5019489;28;20388;-71
2021/12/18 04:06:23;;;;;;;37.10;4.47;;;6.50;99.90;;;;;;5020710;28;20404;-71
2021/12/18 04:08:49;;;;;;;34.58;5.15;;;6.50;99.90;;;;;;5021487;28;20494;-71
2021/12/18 04:11:15;;;;;;;39.97;5.22;;;6.50;99.90;;;;;;5015666;28;20018;-72
2021/12/18 04:13:44;;;;;;;34.22;4.95;;;6.50;99.90;;;;;;5020099;28;20411;-72
2021/12/18 04:16:11;;;;;;;31.52;4.40;;;6.50;99.90;;;;;;5027655;28;20163;-72
2021/12/18 04:18:37;;;;;;;36.30;5.70;;;6.60;99.90;;;;;;5016899;28;20124;-71
2021/12/18 04:21:02;;;;;;;37.13;4.72;;;6.50;99.90;;;;;;5031943;28;20030;-72
2021/12/18 04:23:28;;;;;;;34.72;5.75;;;6.60;99.90;;;;;;5033737;28;20086;-72
2021/12/18 04:25:55;;;;;;;36.08;5.43;;;6.60;99.90;;;;;;5020626;28;20084;-72
2021/12/18 04:28:21;;;;;;;43.00;5.85;;;6.50;99.90;;;;;;5022301;28;20014;-72
2021/12/18 04:30:46;;;;;;;33.58;4.85;;;6.50;99.90;;;;;;5029962;28;20032;-72
2021/12/18 04:33:12;;;;;;;32.05;5.60;;;6.60;99.90;;;;;;5022509;28;20026;-72
2021/12/18 04:35:38;;;;;;;46.28;6.35;;;6.60;99.90;;;;;;5014222;28;20053;-72
2021/12/18 04:38:03;;;;;;;38.00;5.53;;;6.60;99.90;;;;;;5022956;28;20163;-72
2021/12/18 04:40:29;;;;;;;47.53;6.18;;;6.60;99.90;;;;;;5023083;28;20460;-72
2021/12/18 04:42:55;;;;;;;29.83;5.60;;;6.60;99.90;;;;;;5024573;28;20396;-74
2021/12/18 04:45:21;;;;;;;41.80;6.13;;;6.60;99.90;;;;;;5024147;28;20028;-73
2021/12/18 04:47:47;;;;;;;37.40;6.20;;;6.60;99.90;;;;;;5023952;28;20029;-73
2021/12/18 04:50:12;;;;;;;39.55;5.85;;;6.60;99.90;;;;;;5026741;28;20391;-73
2021/12/18 04:52:38;;;;;;;45.42;5.85;;;6.60;99.90;;;;;;5020318;28;20115;-73
2021/12/18 04:55:05;;;;;;;37.80;5.80;;;6.60;99.90;;;;;;5031908;28;20899;-73
2021/12/18 04:57:31;;;;;;;37.15;6.15;;;6.60;99.90;;;;;;5032836;28;20510;-73
2021/12/18 04:59:57;;;;;;;41.67;5.63;;;6.60;99.90;;;;;;5019183;28;20033;-73
2021/12/18 05:02:32;;;;;;;31.80;5.07;;;6.60;99.90;;;;;;5022749;28;20037;-73
2021/12/18 05:04:58;;;;;;;37.00;5.50;;;6.60;99.90;;;;;;5028814;28;20076;-73
2021/12/18 05:07:23;;;;;;;42.50;5.95;;;6.60;99.90;;;;;;5014790;28;20068;-73
2021/12/18 05:09:49;;;;;;;42.55;5.00;;;6.60;99.90;;;;;;5013708;28;20075;-74
2021/12/18 05:12:14;;;;;;;33.42;4.78;;;6.60;99.90;;;;;;5023184;28;20032;-73
2021/12/18 05:14:40;;;;;;;28.45;4.85;;;6.60;99.90;;;;;;5019007;28;20111;-73
2021/12/18 05:17:06;;;;;;;32.60;4.53;;;6.70;99.90;;;;;;5012540;28;20032;-73
2021/12/18 05:19:31;;;;;;;36.25;5.28;;;6.70;99.90;;;;;;5022005;28;20033;-62
2021/12/18 05:21:57;;;;;;;28.77;4.70;;;6.60;99.90;;;;;;5022163;28;20025;-64
2021/12/18 05:24:22;;;;;;;32.05;4.63;;;6.60;99.90;;;;;;5017877;28;20082;-64
2021/12/18 05:26:48;;;;;;;31.25;4.70;;;6.60;99.90;;;;;;5026718;28;20105;-63
2021/12/18 05:29:13;;;;;;;27.98;4.20;;;6.60;99.90;;;;;;5027074;28;20022;-64
2021/12/18 05:31:39;;;;;;;36.17;5.43;;;6.70;99.90;;;;;;5016791;28;20462;-64
2021/12/18 05:34:05;;;;;;;31.13;4.68;;;6.70;99.90;;;;;;5020045;28;20036;-63
2021/12/18 05:37:02;;;;;;;26.60;4.65;;;6.70;99.90;;;;;;5018167;28;20033;-61
2021/12/18 05:39:24;;;;;;;21.63;3.88;;;6.70;99.90;;;;;;5015487;28;20026;-62
2021/12/18 05:41:50;;;;;;;30.70;4.53;;;6.70;99.90;;;;;;5011063;28;20178;-61
2021/12/18 05:44:18;;;;;;;30.88;3.90;;;6.70;99.90;;;;;;5021623;28;20025;-61
2021/12/18 05:46:44;;;;;;;31.92;4.18;;;6.70;99.90;;;;;;5028021;28;20025;-62
2021/12/18 05:49:10;;;;;;;23.67;3.60;;;6.70;99.90;;;;;;5015815;28;20018;-62
2021/12/18 05:51:37;;;;;;;32.65;3.75;;;6.70;99.90;;;;;;5022212;28;20555;-62
2021/12/18 05:54:03;;;;;;;19.70;3.03;;;6.70;99.90;;;;;;5017743;28;20400;-64
2021/12/18 05:56:28;;;;;;;26.88;4.22;;;6.70;99.90;;;;;;5007142;28;20046;-62
2021/12/18 05:58:54;;;;;;;25.17;3.90;;;6.70;99.90;;;;;;5010686;28;20096;-62
2021/12/18 06:01:20;;;;;;;27.30;3.95;;;6.80;99.90;;;;;;5014326;28;20037;-62
2021/12/18 06:03:46;;;;;;;25.85;3.78;;;6.80;99.90;;;;;;5022659;28;20029;-61
2021/12/18 06:06:11;;;;;;;17.80;3.28;;;6.80;99.90;;;;;;5024337;28;20422;-62
2021/12/18 06:08:38;;;;;;;29.27;4.25;;;6.80;99.90;;;;;;5016828;28;20497;-62
2021/12/18 06:11:11;;;;;;;24.33;3.92;;;6.80;99.90;;;;;;5011459;28;20425;-61
2021/12/18 06:13:36;;;;;;;24.10;3.53;;;6.80;99.90;;;;;;5029833;28;20114;-63
2021/12/18 06:16:05;;;;;;;26.65;3.85;;;6.80;99.90;;;;;;5017328;28;20502;-62
2021/12/18 06:18:35;;;;;;;18.25;3.45;;;6.80;99.90;;;;;;5017990;28;20562;-62
2021/12/18 06:21:01;;;;;;;21.17;3.92;;;6.80;99.90;;;;;;5032547;28;20033;-62
2021/12/18 06:23:26;;;;;;;21.02;3.72;;;6.80;99.90;;;;;;5016695;28;20192;-62
2021/12/18 06:25:52;;;;;;;15.02;2.85;;;6.80;99.90;;;;;;5009810;28;20136;-62
2021/12/18 06:28:17;;;;;;;21.83;3.72;;;6.80;99.90;;;;;;5018523;28;20026;-62
2021/12/18 06:30:43;;;;;;;22.45;3.75;;;6.90;99.90;;;;;;5025000;28;20413;-64
2021/12/18 06:33:09;;;;;;;21.50;4.03;;;6.80;99.90;;;;;;5009342;28;20097;-62
2021/12/18 06:35:34;;;;;;;23.00;4.03;;;6.90;99.90;;;;;;5015900;28;20026;-63
2021/12/18 06:38:00;;;;;;;24.38;3.88;;;6.90;99.90;;;;;;5026998;28;20417;-62
2021/12/18 06:40:25;;;;;;;22.33;3.63;;;6.90;99.90;;;;;;5009499;28;20134;-62
2021/12/18 06:42:51;;;;;;;18.20;3.47;;;6.90;99.90;;;;;;5020115;28;20033;-61
2021/12/18 06:45:16;;;;;;;19.75;3.25;;;6.90;99.90;;;;;;5022453;28;20025;-62
2021/12/18 06:47:42;;;;;;;25.20;3.92;;;6.90;99.90;;;;;;5021386;28;20032;-62
2021/12/18 06:50:08;;;;;;;18.08;3.38;;;6.90;99.90;;;;;;5017378;28;20453;-62
2021/12/18 06:52:34;;;;;;;17.88;3.47;;;6.90;99.90;;;;;;5022394;28;20108;-62
2021/12/18 06:55:00;;;;;;;17.80;4.20;;;6.90;99.90;;;;;;5023727;28;20486;-62
2021/12/18 06:57:26;;;;;;;17.25;3.95;;;6.90;99.90;;;;;;5011586;28;20062;-63
2021/12/18 06:59:51;;;;;;;20.88;4.25;;;6.90;99.90;;;;;;5020185;28;20198;-62
2021/12/18 07:02:18;;;;;;;13.75;3.05;;;6.90;99.90;;;;;;5022488;28;20468;-62
2021/12/18 07:04:44;;;;;;;17.05;3.70;;;7.00;99.90;;;;;;5029173;28;20040;-63
2021/12/18 07:07:09;;;;;;;14.27;3.72;;;6.90;99.90;;;;;;5016533;28;20022;-62
2021/12/18 07:09:35;;;;;;;15.02;3.55;;;6.90;99.90;;;;;;5015666;28;20065;-62
2021/12/18 07:12:00;;;;;;;11.38;3.00;;;7.00;99.90;;;;;;5026919;28;20048;-62
2021/12/18 07:14:27;;;;;;;15.50;3.42;;;6.90;99.90;;;;;;5016837;28;20075;-62
2021/12/18 07:16:52;;;;;;;8.85;2.10;;;6.90;99.90;;;;;;5025297;28;20024;-61
2021/12/18 07:19:18;;;;;;;6.40;2.38;;;6.90;99.90;;;;;;5014486;28;20029;-61
2021/12/18 07:21:43;;;;;;;5.47;1.42;;;6.80;99.90;;;;;;5017015;28;20030;-61
2021/12/18 07:24:09;;;;;;;5.53;1.48;;;6.90;99.90;;;;;;5009010;28;20105;-61
2021/12/18 07:26:34;;;;;;;5.05;1.38;;;6.80;99.90;;;;;;5021091;28;20101;-62
2021/12/18 07:29:00;;;;;;;5.00;1.30;;;6.80;99.90;;;;;;5015060;28;20093;-62
2021/12/18 07:31:26;;;;;;;6.13;1.58;;;6.80;99.90;;;;;;5024240;28;20026;-62
2021/12/18 07:33:52;;;;;;;6.10;1.58;;;6.80;99.90;;;;;;5024112;28;20053;-62
2021/12/18 07:36:18;;;;;;;7.43;1.80;;;6.80;99.90;;;;;;5016000;28;20076;-62
2021/12/18 07:38:44;;;;;;;5.45;1.70;;;6.80;99.90;;;;;;5009330;28;20029;-62
2021/12/18 07:41:10;;;;;;;6.00;1.88;;;6.80;99.90;;;;;;5002620;28;20029;-63
2021/12/18 07:43:36;;;;;;;10.43;3.35;;;6.80;99.90;;;;;;5009510;28;20034;-63
2021/12/18 07:46:02;;;;;;;7.28;2.78;;;6.90;99.90;;;;;;5006269;28;20033;-62
2021/12/18 07:48:28;;;;;;;5.95;2.40;;;6.80;99.90;;;;;;5005030;28;20129;-61
2021/12/18 07:50:53;;;;;;;6.95;2.03;;;6.90;99.90;;;;;;5007941;28;20120;-64
2021/12/18 07:53:19;;;;;;;5.38;1.80;;;6.90;99.90;;;;;;5009695;28;20036;-61
2021/12/18 07:55:45;;;;;;;6.07;1.88;;;6.80;99.90;;;;;;5007677;28;20419;-62
2021/12/18 07:58:10;;;;;;;6.80;1.80;;;6.80;99.90;;;;;;5018369;28;20038;-62
2021/12/18 08:00:36;;;;;;;5.25;1.70;;;6.80;99.90;;;;;;5004902;28;20311;-62
2021/12/18 08:03:02;;;;;;;3.90;1.38;;;6.80;99.90;;;;;;5008757;28;20039;-61
2021/12/18 08:05:27;;;;;;;4.25;1.40;;;6.90;99.90;;;;;;5002393;28;20387;-62
2021/12/18 08:07:53;;;;;;;8.77;2.03;;;6.90;99.90;;;;;;5006722;28;20148;-62
2021/12/18 08:10:18;;;;;;;5.25;1.63;;;6.80;99.90;;;;;;5010746;28;20460;-62
2021/12/18 08:12:44;;;;;;;5.00;1.40;;;6.90;99.90;;;;;;5033279;28;20111;-62
2021/12/18 08:15:10;;;;;;;6.10;1.73;;;6.90;99.90;;;;;;5009604;28;20037;-61
2021/12/18 08:17:36;;;;;;;3.70;1.02;;;6.90;99.80;;;;;;5011823;28;20221;-62
2021/12/18 08:20:04;;;;;;;2.97;1.23;;;6.90;99.80;;;;;;5012588;28;20212;-62
2021/12/18 08:22:29;;;;;;;3.22;1.17;;;6.90;99.80;;;;;;5015709;28;20161;-62
2021/12/18 08:24:55;;;;;;;6.85;1.75;;;6.90;99.80;;;;;;5017546;28;20191;-63
2021/12/18 08:27:20;;;;;;;4.32;1.55;;;6.90;99.80;;;;;;5017240;28;20029;-62
2021/12/18 08:29:46;;;;;;;5.10;1.50;;;6.90;99.80;;;;;;5011029;28;20025;-63
2021/12/18 08:32:12;;;;;;;3.67;1.45;;;6.90;99.80;;;;;;5006226;28;20103;-63
2021/12/18 08:34:38;;;;;;;4.15;1.38;;;6.90;99.70;;;;;;5008428;28;20389;-63
2021/12/18 08:37:04;;;;;;;4.20;1.30;;;6.90;99.70;;;;;;5013610;28;20135;-62
2021/12/18 08:39:29;;;;;;;4.93;1.40;;;6.90;99.60;;;;;;5009363;28;20107;-63
2021/12/18 08:41:55;;;;;;;2.70;1.02;;;6.90;99.60;;;;;;5006460;28;20069;-63
2021/12/18 08:44:21;;;;;;;6.75;1.40;;;7.00;99.60;;;;;;5017148;28;20124;-63
2021/12/18 08:46:46;;;;;;;5.07;1.60;;;7.00;99.60;;;;;;5015291;28;20515;-63
2021/12/18 08:49:12;;;;;;;5.15;1.30;;;7.00;99.70;;;;;;5013260;28;20351;-62
2021/12/18 08:51:38;;;;;;;6.80;1.65;;;7.00;99.70;;;;;;5013064;28;20026;-63
2021/12/18 08:54:05;;;;;;;6.10;1.20;;;7.00;99.60;;;;;;5011494;28;20120;-62
2021/12/18 08:56:31;;;;;;;4.38;1.65;;;7.00;99.60;;;;;;5028649;28;20460;-62
2021/12/18 08:58:58;;;;;;;7.18;1.90;;;7.10;99.60;;;;;;5024197;28;20159;-63
2021/12/18 09:01:26;;;;;;;3.53;1.52;;;7.10;99.60;;;;;;5019003;28;20033;-63
2021/12/18 09:03:51;;;;;;;4.85;1.80;;;7.10;99.60;;;;;;5014636;28;20071;-63
2021/12/18 09:06:17;;;;;;;2.72;1.40;;;7.10;99.60;;;;;;5014814;28;20105;-62
2021/12/18 09:08:43;;;;;;;6.22;1.70;;;7.10;99.60;;;;;;5016260;28;20108;-63
2021/12/18 09:11:08;;;;;;;4.25;1.17;;;7.10;99.60;;;;;;5016174;28;20107;-63
2021/12/18 09:13:34;;;;;;;4.57;1.00;;;7.10;99.60;;;;;;5018598;28;20026;-63
2021/12/18 09:15:59;;;;;;;2.03;0.80;;;7.10;99.50;;;;;;5011330;28;20108;-63
2021/12/18 09:18:25;;;;;;;1.60;0.70;;;7.10;99.40;;;;;;5009712;28;20029;-63
2021/12/18 09:20:50;;;;;;;1.52;0.73;;;7.10;99.30;;;;;;5004948;28;20041;-63
2021/12/18 09:23:18;;;;;;;1.50;0.80;;;7.10;99.40;;;;;;5008419;28;20022;-62
2021/12/18 09:25:45;;;;;;;2.28;0.65;;;7.10;99.30;;;;;;5016996;28;20440;-63
2021/12/18 09:28:10;;;;;;;2.38;1.02;;;7.10;99.30;;;;;;5018368;28;20037;-66
2021/12/18 09:30:36;;;;;;;2.28;1.00;;;7.10;99.30;;;;;;5011899;28;20026;-63
2021/12/18 09:33:02;;;;;;;2.45;0.95;;;7.10;99.30;;;;;;5016214;28;20034;-63
2021/12/18 09:35:27;;;;;;;2.92;1.08;;;7.10;99.30;;;;;;5006276;28;20037;-62
2021/12/18 09:37:53;;;;;;;2.60;1.05;;;7.10;99.20;;;;;;5012066;28;20026;-63
2021/12/18 09:40:19;;;;;;;3.22;1.00;;;7.10;99.20;;;;;;5010290;28;20044;-63
2021/12/18 09:42:46;;;;;;;2.10;0.93;;;7.10;99.30;;;;;;5021960;28;20026;-63
2021/12/18 09:45:13;;;;;;;2.10;0.70;;;7.20;99.20;;;;;;5015853;28;20115;-63
2021/12/18 09:47:40;;;;;;;1.13;0.70;;;7.10;99.00;;;;;;5012619;28;20041;-63
2021/12/18 09:50:06;;;;;;;2.10;0.70;;;7.10;99.10;;;;;;5020175;28;20029;-63
2021/12/18 09:52:34;;;;;;;2.13;1.05;;;7.10;99.10;;;;;;5019466;28;20030;-62
2021/12/18 09:54:59;;;;;;;1.67;0.80;;;7.10;99.10;;;;;;5013339;28;20029;-63
2021/12/18 09:57:25;;;;;;;1.92;0.90;;;7.10;99.10;;;;;;5008496;28;20100;-63
2021/12/18 09:59:51;;;;;;;1.58;0.93;;;7.10;99.10;;;;;;5010079;28;20367;-63
2021/12/18 10:02:17;;;;;;;1.38;0.70;;;7.10;99.10;;;;;;5019504;28;20034;-63
2021/12/18 10:04:44;;;;;;;1.67;0.75;;;7.10;99.00;;;;;;5018381;28;20531;-62
2021/12/18 10:07:24;;;;;;;3.30;1.00;;;7.10;98.70;;;;;;5019707;28;20176;-63
2021/12/18 10:09:52;;;;;;;1.77;1.00;;;7.10;98.90;;;;;;5021905;28;20032;-65
2021/12/18 10:12:19;;;;;;;1.17;0.80;;;7.10;98.80;;;;;;5017234;28;20049;-63
2021/12/18 10:14:50;;;;;;;1.23;0.85;;;7.10;98.60;;;;;;5006743;28;20124;-63
2021/12/18 10:17:26;;;;;;;1.63;0.82;;;7.10;98.50;;;;;;5020032;28;20066;-63
2021/12/18 10:20:13;;;;;;;2.15;0.80;;;7.10;98.60;;;;;;5017176;28;20331;-63
2021/12/18 10:22:49;;;;;;;2.45;1.00;;;7.10;98.70;;;;;;5014957;28;20121;-63
2021/12/18 10:25:27;;;;;;;2.38;0.90;;;7.10;98.60;;;;;;5016477;28;20463;-64
2021/12/18 10:28:13;;;;;;;3.17;1.20;;;7.10;98.70;;;;;;5020662;28;20055;-63
2021/12/18 10:30:45;;;;;;;2.38;1.40;;;7.10;98.70;;;;;;5012960;28;20099;-63
2021/12/18 10:33:11;;;;;;;2.58;1.45;;;7.10;98.70;;;;;;5011131;28;20073;-63
2021/12/18 10:35:52;;;;;;;3.28;1.27;;;7.10;98.70;;;;;;5009827;28;20068;-64
2021/12/18 10:38:50;;;;;;;4.00;1.48;;;7.20;98.80;;;;;;5007375;28;20070;-63
2021/12/18 10:41:28;;;;;;;5.35;1.33;;;7.10;98.80;;;;;;5004561;28;20037;-64
2021/12/18 10:44:11;;;;;;;3.53;1.63;;;7.20;98.80;;;;;;5018680;28;20044;-63
2021/12/18 10:46:39;;;;;;;4.80;1.77;;;7.20;98.80;;;;;;5010649;28;20030;-63
2021/12/18 10:49:08;;;;;;;6.22;2.10;;;7.20;98.80;;;;;;5018071;28;20741;-63
2021/12/18 10:51:34;;;;;;;8.80;2.63;;;7.20;98.80;;;;;;5017555;28;21079;-64
2021/12/18 10:54:15;;;;;;;10.23;3.25;;;7.20;98.80;;;;;;5014437;28;20093;-64
2021/12/18 10:56:50;;;;;;;17.00;3.90;;;7.20;98.80;;;;;;5014163;28;20030;-64
2021/12/18 10:59:31;;;;;;;10.65;3.75;;;7.20;98.80;;;;;;5023695;28;20097;-64
2021/12/18 11:01:59;;;;;;;12.30;3.70;;;7.20;98.80;;;;;;5015717;28;20025;-63
2021/12/18 11:04:33;;;;;;;12.07;4.00;;;7.20;98.80;;;;;;5018973;28;20029;-63
2021/12/18 11:06:59;;;;;;;11.82;4.35;;;7.30;98.80;;;;;;5023483;28;20441;-64
2021/12/18 11:09:34;;;;;;;14.50;4.10;;;7.30;98.80;;;;;;5011590;28;20391;-64
2021/12/18 11:14:30;;;;;;;10.90;4.15;;;7.30;98.70;;;;;;5011421;28;20029;-64
2021/12/18 11:16:59;;;;;;;11.65;4.35;;;7.30;98.80;;;;;;5007040;28;20865;-63
2021/12/18 11:19:27;;;;;;;13.90;4.38;;;7.30;98.80;;;;;;5005672;28;20498;-64
2021/12/18 11:22:13;;;;;;;15.40;4.63;;;7.30;98.70;;;;;;5005160;28;20088;-64
2021/12/18 11:24:59;;;;;;;15.27;4.47;;;7.40;98.70;;;;;;5008746;28;20125;-63
2021/12/18 11:27:25;;;;;;;15.95;4.20;;;7.40;98.60;;;;;;5023479;28;20283;-64
2021/12/18 11:29:59;;;;;;;12.98;4.38;;;7.40;98.50;;;;;;5019940;28;20102;-64
2021/12/18 11:32:27;;;;;;;14.52;3.97;;;7.40;98.50;;;;;;5009084;28;20065;-64
2021/12/18 11:34:54;;;;;;;18.40;4.13;;;7.50;98.60;;;;;;5008214;28;20129;-64
2021/12/18 11:37:22;;;;;;;15.77;4.70;;;7.50;98.50;;;;;;5013602;28;20049;-63
2021/12/18 11:39:51;;;;;;;23.65;4.85;;;7.50;98.50;;;;;;5023030;28;20025;-63
2021/12/18 11:42:17;;;;;;;17.55;4.28;;;7.50;98.40;;;;;;5026144;28;20045;-63
2021/12/18 11:44:53;;;;;;;11.65;4.05;;;7.60;98.40;;;;;;5014576;28;20377;-64
2021/12/18 11:47:23;;;;;;;14.05;3.05;;;7.60;98.40;;;;;;5018409;28;20025;-64
2021/12/18 11:49:49;;;;;;;12.77;3.53;;;7.60;98.40;;;;;;5023131;28;20053;-63
2021/12/18 11:52:15;;;;;;;10.00;3.25;;;7.60;98.40;;;;;;5013486;28;20037;-63
2021/12/18 11:54:50;;;;;;;16.40;3.92;;;7.60;98.30;;;;;;5011032;28;20037;-63
2021/12/18 11:57:34;;;;;;;11.27;3.30;;;7.70;98.20;;;;;;5021519;28;20455;-62
2021/12/18 12:00:00;;;;;;;14.02;3.65;;;7.60;98.10;;;;;;5020111;28;20127;-62
2021/12/18 12:03:01;;;;;;;14.15;3.47;;;7.70;98.10;;;;;;5021863;28;20127;-62
2021/12/18 12:05:43;;;;;;;15.00;3.92;;;7.70;98.00;;;;;;5019661;28;20036;-62
2021/12/18 12:08:28;;;;;;;13.80;3.40;;;7.80;98.00;;;;;;5024173;28;20090;-62
2021/12/18 12:11:15;;;;;;;15.63;4.50;;;7.70;97.90;;;;;;5017908;28;20025;-62
2021/12/18 12:14:07;;;;;;;20.15;3.50;;;7.80;97.90;;;;;;5021617;28;20136;-62
2021/12/18 12:16:59;;;;;;;12.82;3.42;;;7.80;97.90;;;;;;5025335;28;20030;-63
2021/12/18 12:19:39;;;;;;;15.43;3.47;;;7.80;97.90;;;;;;5017533;28;20042;-63
2021/12/18 12:22:29;;;;;;;18.45;3.42;;;7.80;98.00;;;;;;5012667;28;20121;-63
2021/12/18 12:24:58;;;;;;;14.85;3.10;;;7.80;97.90;;;;;;5012221;28;20689;-63
2021/12/18 12:27:40;;;;;;;14.15;3.55;;;7.90;97.80;;;;;;5021598;28;20045;-63
2021/12/18 12:30:10;;;;;;;20.98;3.50;;;7.90;97.70;;;;;;5027215;28;20031;-63
2021/12/18 12:32:37;;;;;;;25.23;4.32;;;8.00;97.60;;;;;;5026254;28;20086;-63
2021/12/18 12:35:13;;;;;;;12.60;3.47;;;8.00;97.60;;;;;;5009935;28;20026;-63
2021/12/18 12:37:46;;;;;;;16.67;3.33;;;8.00;97.60;;;;;;5019452;28;20116;-63
2021/12/18 12:40:35;;;;;;;11.35;2.60;;;8.00;97.60;;;;;;5014537;28;20035;-63
2021/12/18 12:43:15;;;;;;;13.68;3.35;;;8.00;97.30;;;;;;5018841;28;20053;-63
2021/12/18 12:45:43;;;;;;;18.75;4.03;;;8.10;97.40;;;;;;5012985;28;20600;-63
2021/12/18 12:48:09;;;;;;;18.58;7.25;;;8.10;97.50;;;;;;5011633;28;20383;-63
2021/12/18 12:50:36;;;;;;;13.05;3.78;;;8.10;97.50;;;;;;5011326;28;20099;-63
2021/12/18 12:53:03;;;;;;;15.00;4.00;;;8.10;97.30;;;;;;5022315;28;20121;-63
2021/12/18 12:55:37;;;;;;;58.75;23.42;;;8.10;97.30;;;;;;5010840;28;20082;-63
2021/12/18 12:58:03;;;;;;;15.20;5.93;;;8.20;97.30;;;;;;5018357;28;20120;-63
2021/12/18 13:00:29;;;;;;;22.25;4.70;;;8.20;97.30;;;;;;5020108;28;20048;-63
2021/12/18 13:02:58;;;;;;;16.95;4.00;;;8.20;97.30;;;;;;5022139;28;20627;-63
2021/12/18 13:05:26;;;;;;;17.60;3.50;;;8.20;97.30;;;;;;5017800;28;20123;-63
2021/12/18 13:07:54;;;;;;;17.48;3.92;;;8.30;97.20;;;;;;5022910;28;20349;-63
2021/12/18 13:10:26;;;;;;;9.05;2.30;;;8.30;97.20;;;;;;5024354;28;20045;-63
2021/12/18 13:12:57;;;;;;;21.20;3.65;;;8.30;97.00;;;;;;5021609;28;20029;-63
2021/12/18 13:15:23;;;;;;;16.10;3.35;;;8.30;97.00;;;;;;5012389;28;20056;-63
2021/12/18 13:18:05;;;;;;;9.35;3.30;;;8.30;97.00;;;;;;5020833;28;20034;-63
2021/12/18 13:20:44;;;;;;;13.48;3.40;;;8.30;97.10;;;;;;5012283;28;20153;-63
2021/12/18 13:23:17;;;;;;;16.35;4.03;;;8.30;97.00;;;;;;5017942;28;20116;-63
2021/12/18 13:26:01;;;;;;;18.42;3.47;;;8.30;97.00;;;;;;5017130;28;20380;-63
2021/12/18 13:28:26;;;;;;;10.38;2.92;;;8.40;97.10;;;;;;5017001;28;20775;-63
2021/12/18 13:30:54;;;;;;;16.95;3.03;;;8.40;97.00;;;;;;5013170;28;20049;-63
2021/12/18 13:33:28;;;;;;;20.05;3.10;;;8.40;96.90;;;;;;5022871;28;20083;-63
2021/12/18 13:35:57;;;;;;;18.15;3.75;;;8.40;96.90;;;;;;5020728;28;20051;-63
2021/12/18 13:38:23;;;;;;;15.60;3.45;;;8.40;97.00;;;;;;5013180;28;20033;-63
2021/12/18 13:40:50;;;;;;;11.85;3.55;;;8.30;97.00;;;;;;5016345;28;20033;-64
2021/12/18 13:43:17;;;;;;;14.32;3.58;;;8.40;97.00;;;;;;5023686;28;20215;-63